sensor_id;sensor_type;location;lat;lon;timestamp;P1;durP1;ratioP1;P2;durP2;ratioP2
40737;SDS011;54759;48.094;-1.628;2022-07-25T00:01:09;0.20;;;0.10;;
40737;SDS011;54759;48.094;-1.628;2022-07-25T00:04:12;0.20;;;0.17;;
40737;SDS011;54759;48.094;-1.628;2022-07-25T00:07:15;0.10;;;0.10;;
40737;SDS011;54759;48.094;-1.628;2022-07-25T00:10:16;0.20;;;0.20;;
40737;SDS011;54759;48.094;-1.628;2022-07-25T00:13:21;0.20;;;0.20;;
40737;SDS011;54759;48.094;-1.628;2022-07-25T00:16:22;0.30;;;0.28;;
40737;SDS011;54759;48.094;-1.628;2022-07-25T00:19:25;0.20;;;0.13;;
40737;SDS011;54759;48.094;-1.628;2022-07-25T00:22:27;0.35;;;0.22;;
40737;SDS011;54759;48.094;-1.628;2022-07-25T00:25:29;0.10;;;0.10;;
40737;SDS011;54759;48.094;-1.628;2022-07-25T00:28:30;0.30;;;0.20;;
40737;SDS011;54759;48.094;-1.628;2022-07-25T00:31:32;0.20;;;0.20;;
40737;SDS011;54759;48.094;-1.628;2022-07-25T00:34:34;0.10;;;0.10;;
40737;SDS011;54759;48.094;-1.628;2022-07-25T00:37:36;0.10;;;0.10;;
40737;SDS011;54759;48.094;-1.628;2022-07-25T00:40:39;0.45;;;0.20;;
40737;SDS011;54759;48.094;-1.628;2022-07-25T00:43:41;0.30;;;0.20;;
40737;SDS011;54759;48.094;-1.628;2022-07-25T00:46:43;0.10;;;0.10;;
40737;SDS011;54759;48.094;-1.628;2022-07-25T00:49:46;0.20;;;0.20;;
40737;SDS011;54759;48.094;-1.628;2022-07-25T00:52:48;0.20;;;0.10;;
40737;SDS011;54759;48.094;-1.628;2022-07-25T00:55:50;0.20;;;0.20;;
40737;SDS011;54759;48.094;-1.628;2022-07-25T00:58:52;0.38;;;0.30;;
40737;SDS011;54759;48.094;-1.628;2022-07-25T01:01:54;0.20;;;0.20;;
40737;SDS011;54759;48.094;-1.628;2022-07-25T01:04:59;0.10;;;0.10;;
40737;SDS011;54759;48.094;-1.628;2022-07-25T01:08:02;0.47;;;0.20;;
40737;SDS011;54759;48.094;-1.628;2022-07-25T01:11:04;0.10;;;0.10;;
40737;SDS011;54759;48.094;-1.628;2022-07-25T01:14:06;0.10;;;0.10;;
40737;SDS011;54759;48.094;-1.628;2022-07-25T01:17:08;0.20;;;0.20;;
40737;SDS011;54759;48.094;-1.628;2022-07-25T01:20:12;0.20;;;0.10;;
40737;SDS011;54759;48.094;-1.628;2022-07-25T01:23:14;0.10;;;0.10;;
40737;SDS011;54759;48.094;-1.628;2022-07-25T01:26:16;0.20;;;0.20;;
40737;SDS011;54759;48.094;-1.628;2022-07-25T01:29:18;0.10;;;0.10;;
40737;SDS011;54759;48.094;-1.628;2022-07-25T01:32:19;0.13;;;0.13;;
40737;SDS011;54759;48.094;-1.628;2022-07-25T01:35:21;0.22;;;0.20;;
40737;SDS011;54759;48.094;-1.628;2022-07-25T01:38:23;0.40;;;0.15;;
40737;SDS011;54759;48.094;-1.628;2022-07-25T01:41:24;0.35;;;0.20;;
40737;SDS011;54759;48.094;-1.628;2022-07-25T01:44:29;0.10;;;0.10;;
40737;SDS011;54759;48.094;-1.628;2022-07-25T01:47:30;0.13;;;0.10;;
40737;SDS011;54759;48.094;-1.628;2022-07-25T01:50:33;0.10;;;0.10;;
40737;SDS011;54759;48.094;-1.628;2022-07-25T01:53:34;0.10;;;0.10;;
40737;SDS011;54759;48.094;-1.628;2022-07-25T01:56:41;0.20;;;0.20;;
40737;SDS011;54759;48.094;-1.628;2022-07-25T01:59:46;0.08;;;0.08;;
40737;SDS011;54759;48.094;-1.628;2022-07-25T02:02:47;0.28;;;0.20;;
40737;SDS011;54759;48.094;-1.628;2022-07-25T02:09:11;0.52;;;0.20;;
40737;SDS011;54759;48.094;-1.628;2022-07-25T02:12:12;0.10;;;0.10;;
40737;SDS011;54759;48.094;-1.628;2022-07-25T02:15:14;0.15;;;0.15;;
40737;SDS011;54759;48.094;-1.628;2022-07-25T02:18:16;0.10;;;0.10;;
40737;SDS011;54759;48.094;-1.628;2022-07-25T02:21:18;0.20;;;0.20;;
40737;SDS011;54759;48.094;-1.628;2022-07-25T02:24:19;0.10;;;0.10;;
40737;SDS011;54759;48.094;-1.628;2022-07-25T02:27:21;0.20;;;0.10;;
40737;SDS011;54759;48.094;-1.628;2022-07-25T02:30:22;0.10;;;0.10;;
40737;SDS011;54759;48.094;-1.628;2022-07-25T02:33:24;0.40;;;0.10;;
40737;SDS011;54759;48.094;-1.628;2022-07-25T02:36:26;0.10;;;0.10;;
40737;SDS011;54759;48.094;-1.628;2022-07-25T02:39:28;0.20;;;0.20;;
40737;SDS011;54759;48.094;-1.628;2022-07-25T02:42:29;0.65;;;0.20;;
40737;SDS011;54759;48.094;-1.628;2022-07-25T02:45:31;0.20;;;0.20;;
40737;SDS011;54759;48.094;-1.628;2022-07-25T02:48:34;0.40;;;0.20;;
40737;SDS011;54759;48.094;-1.628;2022-07-25T02:51:36;0.20;;;0.20;;
40737;SDS011;54759;48.094;-1.628;2022-07-25T02:54:38;0.17;;;0.10;;
40737;SDS011;54759;48.094;-1.628;2022-07-25T02:57:39;0.10;;;0.10;;
40737;SDS011;54759;48.094;-1.628;2022-07-25T03:00:41;0.20;;;0.10;;
40737;SDS011;54759;48.094;-1.628;2022-07-25T03:03:44;0.10;;;0.10;;
40737;SDS011;54759;48.094;-1.628;2022-07-25T03:06:47;0.10;;;0.10;;
40737;SDS011;54759;48.094;-1.628;2022-07-25T03:09:48;0.10;;;0.10;;
40737;SDS011;54759;48.094;-1.628;2022-07-25T03:12:50;0.10;;;0.10;;
40737;SDS011;54759;48.094;-1.628;2022-07-25T03:15:51;0.15;;;0.10;;
40737;SDS011;54759;48.094;-1.628;2022-07-25T03:18:53;0.10;;;0.10;;
40737;SDS011;54759;48.094;-1.628;2022-07-25T03:21:55;0.15;;;0.10;;
40737;SDS011;54759;48.094;-1.628;2022-07-25T03:24:56;0.20;;;0.10;;
40737;SDS011;54759;48.094;-1.628;2022-07-25T03:27:58;0.20;;;0.20;;
40737;SDS011;54759;48.094;-1.628;2022-07-25T03:30:59;0.13;;;0.13;;
40737;SDS011;54759;48.094;-1.628;2022-07-25T03:34:01;0.10;;;0.10;;
40737;SDS011;54759;48.094;-1.628;2022-07-25T03:37:03;0.20;;;0.20;;
40737;SDS011;54759;48.094;-1.628;2022-07-25T03:40:05;0.13;;;0.13;;
40737;SDS011;54759;48.094;-1.628;2022-07-25T03:43:07;0.20;;;0.20;;
40737;SDS011;54759;48.094;-1.628;2022-07-25T03:46:09;0.20;;;0.20;;
40737;SDS011;54759;48.094;-1.628;2022-07-25T03:49:11;0.15;;;0.15;;
40737;SDS011;54759;48.094;-1.628;2022-07-25T03:52:13;0.17;;;0.10;;
40737;SDS011;54759;48.094;-1.628;2022-07-25T03:55:14;0.30;;;0.10;;
40737;SDS011;54759;48.094;-1.628;2022-07-25T03:58:16;0.20;;;0.20;;
40737;SDS011;54759;48.094;-1.628;2022-07-25T04:01:17;0.10;;;0.10;;
40737;SDS011;54759;48.094;-1.628;2022-07-25T04:04:21;0.30;;;0.15;;
40737;SDS011;54759;48.094;-1.628;2022-07-25T04:07:23;0.20;;;0.10;;
40737;SDS011;54759;48.094;-1.628;2022-07-25T04:10:25;0.10;;;0.10;;
40737;SDS011;54759;48.094;-1.628;2022-07-25T04:13:27;0.20;;;0.20;;
40737;SDS011;54759;48.094;-1.628;2022-07-25T04:16:29;0.20;;;0.10;;
40737;SDS011;54759;48.094;-1.628;2022-07-25T04:19:31;0.32;;;0.10;;
40737;SDS011;54759;48.094;-1.628;2022-07-25T04:22:33;0.13;;;0.10;;
40737;SDS011;54759;48.094;-1.628;2022-07-25T04:25:35;0.20;;;0.20;;
40737;SDS011;54759;48.094;-1.628;2022-07-25T04:28:37;0.10;;;0.10;;
40737;SDS011;54759;48.094;-1.628;2022-07-25T04:31:38;0.20;;;0.20;;
40737;SDS011;54759;48.094;-1.628;2022-07-25T04:34:40;0.20;;;0.17;;
40737;SDS011;54759;48.094;-1.628;2022-07-25T04:37:43;0.20;;;0.20;;
40737;SDS011;54759;48.094;-1.628;2022-07-25T04:40:45;0.10;;;0.10;;
40737;SDS011;54759;48.094;-1.628;2022-07-25T04:43:47;0.17;;;0.17;;
40737;SDS011;54759;48.094;-1.628;2022-07-25T04:46:49;0.28;;;0.22;;
40737;SDS011;54759;48.094;-1.628;2022-07-25T04:49:51;0.10;;;0.10;;
40737;SDS011;54759;48.094;-1.628;2022-07-25T04:52:53;0.30;;;0.20;;
40737;SDS011;54759;48.094;-1.628;2022-07-25T04:55:54;0.15;;;0.15;;
40737;SDS011;54759;48.094;-1.628;2022-07-25T04:58:56;0.20;;;0.20;;
40737;SDS011;54759;48.094;-1.628;2022-07-25T05:02:03;0.50;;;0.20;;
40737;SDS011;54759;48.094;-1.628;2022-07-25T05:05:05;0.50;;;0.28;;
40737;SDS011;54759;48.094;-1.628;2022-07-25T05:08:22;0.20;;;0.20;;
40737;SDS011;54759;48.094;-1.628;2022-07-25T05:11:23;0.63;;;0.40;;
40737;SDS011;54759;48.094;-1.628;2022-07-25T05:14:25;0.20;;;0.20;;
40737;SDS011;54759;48.094;-1.628;2022-07-25T05:17:30;0.20;;;0.20;;
40737;SDS011;54759;48.094;-1.628;2022-07-25T05:20:31;0.20;;;0.20;;
40737;SDS011;54759;48.094;-1.628;2022-07-25T05:23:34;0.38;;;0.20;;
40737;SDS011;54759;48.094;-1.628;2022-07-25T05:26:35;0.15;;;0.10;;
40737;SDS011;54759;48.094;-1.628;2022-07-25T05:29:37;0.20;;;0.20;;
40737;SDS011;54759;48.094;-1.628;2022-07-25T05:32:39;0.20;;;0.20;;
40737;SDS011;54759;48.094;-1.628;2022-07-25T05:35:41;0.30;;;0.28;;
40737;SDS011;54759;48.094;-1.628;2022-07-25T05:38:43;0.35;;;0.13;;
40737;SDS011;54759;48.094;-1.628;2022-07-25T05:41:45;0.17;;;0.17;;
40737;SDS011;54759;48.094;-1.628;2022-07-25T05:44:46;0.20;;;0.20;;
40737;SDS011;54759;48.094;-1.628;2022-07-25T05:47:48;0.20;;;0.20;;
40737;SDS011;54759;48.094;-1.628;2022-07-25T05:50:50;0.40;;;0.20;;
40737;SDS011;54759;48.094;-1.628;2022-07-25T05:53:52;0.50;;;0.20;;
40737;SDS011;54759;48.094;-1.628;2022-07-25T05:56:53;0.25;;;0.20;;
40737;SDS011;54759;48.094;-1.628;2022-07-25T05:59:55;0.50;;;0.28;;
40737;SDS011;54759;48.094;-1.628;2022-07-25T06:02:57;0.20;;;0.20;;
40737;SDS011;54759;48.094;-1.628;2022-07-25T06:06:00;0.20;;;0.20;;
40737;SDS011;54759;48.094;-1.628;2022-07-25T06:09:02;0.40;;;0.30;;
40737;SDS011;54759;48.094;-1.628;2022-07-25T06:12:08;0.35;;;0.30;;
40737;SDS011;54759;48.094;-1.628;2022-07-25T06:15:10;0.45;;;0.45;;
40737;SDS011;54759;48.094;-1.628;2022-07-25T06:18:22;0.30;;;0.30;;
40737;SDS011;54759;48.094;-1.628;2022-07-25T06:21:25;0.50;;;0.30;;
40737;SDS011;54759;48.094;-1.628;2022-07-25T06:24:27;0.30;;;0.30;;
40737;SDS011;54759;48.094;-1.628;2022-07-25T06:27:28;0.30;;;0.30;;
40737;SDS011;54759;48.094;-1.628;2022-07-25T06:30:30;0.50;;;0.30;;
40737;SDS011;54759;48.094;-1.628;2022-07-25T06:33:31;1.08;;;0.57;;
40737;SDS011;54759;48.094;-1.628;2022-07-25T06:36:33;0.32;;;0.28;;
40737;SDS011;54759;48.094;-1.628;2022-07-25T06:39:35;0.45;;;0.30;;
40737;SDS011;54759;48.094;-1.628;2022-07-25T06:42:37;0.30;;;0.30;;
40737;SDS011;54759;48.094;-1.628;2022-07-25T06:45:39;0.40;;;0.40;;
40737;SDS011;54759;48.094;-1.628;2022-07-25T06:48:46;0.40;;;0.30;;
40737;SDS011;54759;48.094;-1.628;2022-07-25T06:51:48;0.50;;;0.40;;
40737;SDS011;54759;48.094;-1.628;2022-07-25T06:54:50;0.60;;;0.30;;
40737;SDS011;54759;48.094;-1.628;2022-07-25T06:57:52;0.77;;;0.43;;
40737;SDS011;54759;48.094;-1.628;2022-07-25T07:00:54;0.32;;;0.30;;
40737;SDS011;54759;48.094;-1.628;2022-07-25T07:03:55;1.23;;;0.68;;
40737;SDS011;54759;48.094;-1.628;2022-07-25T07:06:57;1.27;;;0.63;;
40737;SDS011;54759;48.094;-1.628;2022-07-25T07:09:59;2.60;;;0.77;;
40737;SDS011;54759;48.094;-1.628;2022-07-25T07:13:01;1.50;;;0.73;;
40737;SDS011;54759;48.094;-1.628;2022-07-25T07:16:06;4.10;;;0.95;;
40737;SDS011;54759;48.094;-1.628;2022-07-25T07:19:08;1.90;;;0.70;;
40737;SDS011;54759;48.094;-1.628;2022-07-25T07:22:11;3.03;;;0.70;;
40737;SDS011;54759;48.094;-1.628;2022-07-25T07:25:15;1.65;;;0.85;;
40737;SDS011;54759;48.094;-1.628;2022-07-25T07:28:20;2.08;;;0.93;;
40737;SDS011;54759;48.094;-1.628;2022-07-25T07:31:21;2.03;;;0.60;;
40737;SDS011;54759;48.094;-1.628;2022-07-25T07:34:23;1.42;;;0.80;;
40737;SDS011;54759;48.094;-1.628;2022-07-25T07:37:25;2.03;;;0.90;;
40737;SDS011;54759;48.094;-1.628;2022-07-25T07:40:32;1.50;;;0.75;;
40737;SDS011;54759;48.094;-1.628;2022-07-25T07:43:34;1.02;;;0.90;;
40737;SDS011;54759;48.094;-1.628;2022-07-25T07:46:36;1.75;;;0.80;;
40737;SDS011;54759;48.094;-1.628;2022-07-25T07:49:37;1.17;;;0.70;;
40737;SDS011;54759;48.094;-1.628;2022-07-25T07:52:39;1.90;;;0.93;;
40737;SDS011;54759;48.094;-1.628;2022-07-25T07:55:41;1.63;;;0.93;;
40737;SDS011;54759;48.094;-1.628;2022-07-25T07:58:44;1.90;;;0.80;;
40737;SDS011;54759;48.094;-1.628;2022-07-25T08:01:46;1.30;;;0.80;;
40737;SDS011;54759;48.094;-1.628;2022-07-25T08:04:48;1.25;;;0.70;;
40737;SDS011;54759;48.094;-1.628;2022-07-25T08:07:50;1.65;;;0.70;;
40737;SDS011;54759;48.094;-1.628;2022-07-25T08:10:56;0.85;;;0.60;;
40737;SDS011;54759;48.094;-1.628;2022-07-25T08:13:59;1.25;;;0.70;;
40737;SDS011;54759;48.094;-1.628;2022-07-25T08:17:01;0.73;;;0.60;;
40737;SDS011;54759;48.094;-1.628;2022-07-25T08:20:03;0.88;;;0.65;;
40737;SDS011;54759;48.094;-1.628;2022-07-25T08:23:27;1.20;;;0.65;;
40737;SDS011;54759;48.094;-1.628;2022-07-25T08:26:31;1.17;;;0.60;;
40737;SDS011;54759;48.094;-1.628;2022-07-25T08:29:36;7.13;;;0.80;;
40737;SDS011;54759;48.094;-1.628;2022-07-25T08:32:45;2.88;;;0.57;;
40737;SDS011;54759;48.094;-1.628;2022-07-25T08:35:48;1.63;;;0.85;;
40737;SDS011;54759;48.094;-1.628;2022-07-25T08:38:52;0.82;;;0.50;;
40737;SDS011;54759;48.094;-1.628;2022-07-25T08:41:55;0.65;;;0.30;;
40737;SDS011;54759;48.094;-1.628;2022-07-25T08:44:58;0.32;;;0.28;;
40737;SDS011;54759;48.094;-1.628;2022-07-25T08:48:02;2.80;;;0.65;;
40737;SDS011;54759;48.094;-1.628;2022-07-25T08:51:04;0.52;;;0.32;;
40737;SDS011;54759;48.094;-1.628;2022-07-25T08:54:06;0.60;;;0.38;;
40737;SDS011;54759;48.094;-1.628;2022-07-25T08:57:11;0.45;;;0.38;;
40737;SDS011;54759;48.094;-1.628;2022-07-25T09:00:14;0.80;;;0.43;;
40737;SDS011;54759;48.094;-1.628;2022-07-25T09:03:17;0.73;;;0.30;;
40737;SDS011;54759;48.094;-1.628;2022-07-25T09:06:20;0.40;;;0.30;;
40737;SDS011;54759;48.094;-1.628;2022-07-25T09:09:30;0.57;;;0.28;;
40737;SDS011;54759;48.094;-1.628;2022-07-25T09:12:32;0.55;;;0.30;;
40737;SDS011;54759;48.094;-1.628;2022-07-25T09:15:40;0.60;;;0.40;;
40737;SDS011;54759;48.094;-1.628;2022-07-25T09:18:44;1.25;;;0.45;;
40737;SDS011;54759;48.094;-1.628;2022-07-25T09:21:56;0.90;;;0.28;;
40737;SDS011;54759;48.094;-1.628;2022-07-25T09:25:00;1.48;;;0.50;;
40737;SDS011;54759;48.094;-1.628;2022-07-25T09:28:10;1.23;;;0.30;;
40737;SDS011;54759;48.094;-1.628;2022-07-25T09:31:12;0.82;;;0.20;;
40737;SDS011;54759;48.094;-1.628;2022-07-25T09:34:15;0.52;;;0.20;;
40737;SDS011;54759;48.094;-1.628;2022-07-25T09:37:28;0.47;;;0.25;;
40737;SDS011;54759;48.094;-1.628;2022-07-25T09:40:30;0.52;;;0.30;;
40737;SDS011;54759;48.094;-1.628;2022-07-25T09:43:36;1.05;;;0.43;;
40737;SDS011;54759;48.094;-1.628;2022-07-25T09:46:38;0.60;;;0.20;;
40737;SDS011;54759;48.094;-1.628;2022-07-25T09:49:40;0.63;;;0.40;;
40737;SDS011;54759;48.094;-1.628;2022-07-25T09:52:44;0.95;;;0.20;;
40737;SDS011;54759;48.094;-1.628;2022-07-25T09:55:46;0.35;;;0.35;;
40737;SDS011;54759;48.094;-1.628;2022-07-25T09:58:48;0.60;;;0.40;;
40737;SDS011;54759;48.094;-1.628;2022-07-25T10:01:50;0.47;;;0.30;;
40737;SDS011;54759;48.094;-1.628;2022-07-25T10:05:08;0.40;;;0.28;;
40737;SDS011;54759;48.094;-1.628;2022-07-25T10:08:14;0.20;;;0.13;;
40737;SDS011;54759;48.094;-1.628;2022-07-25T10:11:17;0.68;;;0.30;;
40737;SDS011;54759;48.094;-1.628;2022-07-25T10:14:21;0.20;;;0.20;;
40737;SDS011;54759;48.094;-1.628;2022-07-25T10:17:22;0.60;;;0.40;;
40737;SDS011;54759;48.094;-1.628;2022-07-25T10:20:26;0.43;;;0.30;;
40737;SDS011;54759;48.094;-1.628;2022-07-25T10:23:29;1.40;;;0.30;;
40737;SDS011;54759;48.094;-1.628;2022-07-25T10:26:31;1.42;;;0.50;;
40737;SDS011;54759;48.094;-1.628;2022-07-25T10:29:34;1.05;;;0.40;;
40737;SDS011;54759;48.094;-1.628;2022-07-25T10:32:37;0.30;;;0.20;;
40737;SDS011;54759;48.094;-1.628;2022-07-25T10:35:50;0.45;;;0.22;;
40737;SDS011;54759;48.094;-1.628;2022-07-25T10:38:55;0.70;;;0.25;;
40737;SDS011;54759;48.094;-1.628;2022-07-25T10:41:58;0.57;;;0.20;;
40737;SDS011;54759;48.094;-1.628;2022-07-25T10:45:03;0.40;;;0.20;;
40737;SDS011;54759;48.094;-1.628;2022-07-25T10:48:19;0.98;;;0.20;;
40737;SDS011;54759;48.094;-1.628;2022-07-25T10:51:24;0.52;;;0.10;;
40737;SDS011;54759;48.094;-1.628;2022-07-25T10:54:31;0.28;;;0.20;;
40737;SDS011;54759;48.094;-1.628;2022-07-25T10:57:34;0.38;;;0.20;;
40737;SDS011;54759;48.094;-1.628;2022-07-25T11:00:41;0.68;;;0.32;;
40737;SDS011;54759;48.094;-1.628;2022-07-25T11:03:44;0.35;;;0.20;;
40737;SDS011;54759;48.094;-1.628;2022-07-25T11:06:46;0.20;;;0.13;;
40737;SDS011;54759;48.094;-1.628;2022-07-25T11:09:54;0.38;;;0.20;;
40737;SDS011;54759;48.094;-1.628;2022-07-25T11:12:57;0.20;;;0.20;;
40737;SDS011;54759;48.094;-1.628;2022-07-25T11:16:00;0.82;;;0.20;;
40737;SDS011;54759;48.094;-1.628;2022-07-25T11:19:01;0.20;;;0.10;;
40737;SDS011;54759;48.094;-1.628;2022-07-25T11:22:03;0.57;;;0.30;;
40737;SDS011;54759;48.094;-1.628;2022-07-25T11:25:09;0.20;;;0.20;;
40737;SDS011;54759;48.094;-1.628;2022-07-25T11:28:11;0.73;;;0.30;;
40737;SDS011;54759;48.094;-1.628;2022-07-25T11:31:14;0.10;;;0.10;;
40737;SDS011;54759;48.094;-1.628;2022-07-25T11:34:17;0.30;;;0.20;;
40737;SDS011;54759;48.094;-1.628;2022-07-25T11:37:22;0.20;;;0.10;;
40737;SDS011;54759;48.094;-1.628;2022-07-25T11:40:25;0.25;;;0.20;;
40737;SDS011;54759;48.094;-1.628;2022-07-25T11:43:27;0.20;;;0.13;;
40737;SDS011;54759;48.094;-1.628;2022-07-25T11:46:29;0.75;;;0.20;;
40737;SDS011;54759;48.094;-1.628;2022-07-25T11:49:43;0.10;;;0.10;;
40737;SDS011;54759;48.094;-1.628;2022-07-25T11:52:45;0.55;;;0.10;;
40737;SDS011;54759;48.094;-1.628;2022-07-25T11:55:46;0.20;;;0.10;;
40737;SDS011;54759;48.094;-1.628;2022-07-25T11:58:52;0.20;;;0.20;;
40737;SDS011;54759;48.094;-1.628;2022-07-25T12:01:59;0.60;;;0.20;;
40737;SDS011;54759;48.094;-1.628;2022-07-25T12:05:02;0.20;;;0.10;;
40737;SDS011;54759;48.094;-1.628;2022-07-25T12:08:08;0.13;;;0.10;;
40737;SDS011;54759;48.094;-1.628;2022-07-25T12:11:18;0.40;;;0.20;;
40737;SDS011;54759;48.094;-1.628;2022-07-25T12:14:20;0.55;;;0.10;;
40737;SDS011;54759;48.094;-1.628;2022-07-25T12:17:22;0.30;;;0.30;;
40737;SDS011;54759;48.094;-1.628;2022-07-25T12:20:25;0.50;;;0.20;;
40737;SDS011;54759;48.094;-1.628;2022-07-25T12:23:28;0.20;;;0.10;;
40737;SDS011;54759;48.094;-1.628;2022-07-25T12:26:29;0.10;;;0.10;;
40737;SDS011;54759;48.094;-1.628;2022-07-25T12:29:31;0.10;;;0.10;;
40737;SDS011;54759;48.094;-1.628;2022-07-25T12:32:33;0.28;;;0.10;;
40737;SDS011;54759;48.094;-1.628;2022-07-25T12:35:36;0.10;;;0.10;;
40737;SDS011;54759;48.094;-1.628;2022-07-25T12:38:38;0.10;;;0.10;;
40737;SDS011;54759;48.094;-1.628;2022-07-25T12:41:40;0.10;;;0.10;;
40737;SDS011;54759;48.094;-1.628;2022-07-25T12:44:42;0.22;;;0.10;;
40737;SDS011;54759;48.094;-1.628;2022-07-25T12:47:45;0.32;;;0.10;;
40737;SDS011;54759;48.094;-1.628;2022-07-25T12:50:50;0.10;;;0.10;;
40737;SDS011;54759;48.094;-1.628;2022-07-25T12:53:52;0.28;;;0.10;;
40737;SDS011;54759;48.094;-1.628;2022-07-25T12:56:53;0.10;;;0.10;;
40737;SDS011;54759;48.094;-1.628;2022-07-25T12:59:55;0.10;;;0.10;;
40737;SDS011;54759;48.094;-1.628;2022-07-25T13:02:58;0.60;;;0.20;;
40737;SDS011;54759;48.094;-1.628;2022-07-25T13:05:59;0.50;;;0.25;;
40737;SDS011;54759;48.094;-1.628;2022-07-25T13:09:01;0.20;;;0.10;;
40737;SDS011;54759;48.094;-1.628;2022-07-25T13:12:04;0.20;;;0.10;;
40737;SDS011;54759;48.094;-1.628;2022-07-25T13:15:06;1.23;;;0.20;;
40737;SDS011;54759;48.094;-1.628;2022-07-25T13:18:09;0.28;;;0.15;;
40737;SDS011;54759;48.094;-1.628;2022-07-25T13:21:11;0.20;;;0.10;;
40737;SDS011;54759;48.094;-1.628;2022-07-25T13:24:13;0.17;;;0.10;;
40737;SDS011;54759;48.094;-1.628;2022-07-25T13:27:16;0.35;;;0.20;;
40737;SDS011;54759;48.094;-1.628;2022-07-25T13:30:19;0.32;;;0.20;;
40737;SDS011;54759;48.094;-1.628;2022-07-25T13:33:22;0.52;;;0.20;;
40737;SDS011;54759;48.094;-1.628;2022-07-25T13:36:24;0.15;;;0.10;;
40737;SDS011;54759;48.094;-1.628;2022-07-25T13:39:26;0.90;;;0.25;;
40737;SDS011;54759;48.094;-1.628;2022-07-25T13:42:28;0.30;;;0.20;;
40737;SDS011;54759;48.094;-1.628;2022-07-25T13:45:30;0.25;;;0.20;;
40737;SDS011;54759;48.094;-1.628;2022-07-25T13:48:32;0.28;;;0.20;;
40737;SDS011;54759;48.094;-1.628;2022-07-25T13:51:34;0.28;;;0.20;;
40737;SDS011;54759;48.094;-1.628;2022-07-25T13:54:36;1.55;;;0.20;;
40737;SDS011;54759;48.094;-1.628;2022-07-25T13:57:38;0.52;;;0.20;;
40737;SDS011;54759;48.094;-1.628;2022-07-25T14:00:42;0.95;;;0.10;;
40737;SDS011;54759;48.094;-1.628;2022-07-25T14:03:44;0.73;;;0.10;;
40737;SDS011;54759;48.094;-1.628;2022-07-25T14:06:46;0.17;;;0.17;;
40737;SDS011;54759;48.094;-1.628;2022-07-25T14:09:51;0.30;;;0.20;;
40737;SDS011;54759;48.094;-1.628;2022-07-25T14:12:52;0.10;;;0.10;;
40737;SDS011;54759;48.094;-1.628;2022-07-25T14:15:54;0.88;;;0.20;;
40737;SDS011;54759;48.094;-1.628;2022-07-25T14:18:56;0.22;;;0.17;;
40737;SDS011;54759;48.094;-1.628;2022-07-25T14:21:58;0.30;;;0.10;;
40737;SDS011;54759;48.094;-1.628;2022-07-25T14:25:00;0.13;;;0.10;;
40737;SDS011;54759;48.094;-1.628;2022-07-25T14:28:02;0.10;;;0.08;;
40737;SDS011;54759;48.094;-1.628;2022-07-25T14:31:04;0.40;;;0.15;;
40737;SDS011;54759;48.094;-1.628;2022-07-25T14:34:06;0.22;;;0.15;;
40737;SDS011;54759;48.094;-1.628;2022-07-25T14:37:08;0.43;;;0.10;;
40737;SDS011;54759;48.094;-1.628;2022-07-25T14:40:10;0.22;;;0.10;;
40737;SDS011;54759;48.094;-1.628;2022-07-25T14:43:13;0.70;;;0.20;;
40737;SDS011;54759;48.094;-1.628;2022-07-25T14:46:15;0.40;;;0.20;;
40737;SDS011;54759;48.094;-1.628;2022-07-25T14:49:17;0.43;;;0.20;;
40737;SDS011;54759;48.094;-1.628;2022-07-25T14:52:19;0.30;;;0.20;;
40737;SDS011;54759;48.094;-1.628;2022-07-25T14:55:22;0.20;;;0.10;;
40737;SDS011;54759;48.094;-1.628;2022-07-25T14:58:27;0.40;;;0.13;;
40737;SDS011;54759;48.094;-1.628;2022-07-25T15:01:29;0.28;;;0.20;;
40737;SDS011;54759;48.094;-1.628;2022-07-25T15:04:31;0.13;;;0.10;;
40737;SDS011;54759;48.094;-1.628;2022-07-25T15:07:33;0.17;;;0.10;;
40737;SDS011;54759;48.094;-1.628;2022-07-25T15:10:36;0.13;;;0.13;;
40737;SDS011;54759;48.094;-1.628;2022-07-25T15:13:38;0.10;;;0.10;;
40737;SDS011;54759;48.094;-1.628;2022-07-25T15:16:39;0.68;;;0.20;;
40737;SDS011;54759;48.094;-1.628;2022-07-25T15:19:43;0.10;;;0.10;;
40737;SDS011;54759;48.094;-1.628;2022-07-25T15:22:47;0.40;;;0.10;;
40737;SDS011;54759;48.094;-1.628;2022-07-25T15:25:49;0.10;;;0.10;;
40737;SDS011;54759;48.094;-1.628;2022-07-25T15:29:05;0.20;;;0.10;;
40737;SDS011;54759;48.094;-1.628;2022-07-25T15:32:07;0.10;;;0.10;;
40737;SDS011;54759;48.094;-1.628;2022-07-25T15:35:10;0.10;;;0.08;;
40737;SDS011;54759;48.094;-1.628;2022-07-25T15:38:12;0.82;;;0.20;;
40737;SDS011;54759;48.094;-1.628;2022-07-25T15:41:14;0.40;;;0.20;;
40737;SDS011;54759;48.094;-1.628;2022-07-25T15:44:15;0.30;;;0.10;;
40737;SDS011;54759;48.094;-1.628;2022-07-25T15:47:17;0.03;;;0.00;;
40737;SDS011;54759;48.094;-1.628;2022-07-25T15:50:19;0.00;;;0.00;;
40737;SDS011;54759;48.094;-1.628;2022-07-25T15:53:21;0.17;;;0.10;;
40737;SDS011;54759;48.094;-1.628;2022-07-25T15:56:23;0.10;;;0.10;;
40737;SDS011;54759;48.094;-1.628;2022-07-25T15:59:25;0.45;;;0.10;;
40737;SDS011;54759;48.094;-1.628;2022-07-25T16:02:27;0.20;;;0.15;;
40737;SDS011;54759;48.094;-1.628;2022-07-25T16:05:29;0.47;;;0.10;;
40737;SDS011;54759;48.094;-1.628;2022-07-25T16:08:31;0.25;;;0.10;;
40737;SDS011;54759;48.094;-1.628;2022-07-25T16:11:35;0.10;;;0.10;;
40737;SDS011;54759;48.094;-1.628;2022-07-25T16:14:37;0.00;;;0.00;;
40737;SDS011;54759;48.094;-1.628;2022-07-25T16:17:39;0.15;;;0.10;;
40737;SDS011;54759;48.094;-1.628;2022-07-25T16:20:41;0.10;;;0.10;;
40737;SDS011;54759;48.094;-1.628;2022-07-25T16:23:43;0.10;;;0.10;;
40737;SDS011;54759;48.094;-1.628;2022-07-25T16:26:46;0.00;;;0.00;;
40737;SDS011;54759;48.094;-1.628;2022-07-25T16:29:49;0.10;;;0.10;;
40737;SDS011;54759;48.094;-1.628;2022-07-25T16:32:51;0.15;;;0.10;;
40737;SDS011;54759;48.094;-1.628;2022-07-25T16:35:53;0.15;;;0.10;;
40737;SDS011;54759;48.094;-1.628;2022-07-25T16:38:55;0.10;;;0.10;;
40737;SDS011;54759;48.094;-1.628;2022-07-25T16:41:57;0.00;;;0.00;;
40737;SDS011;54759;48.094;-1.628;2022-07-25T16:44:58;0.28;;;0.10;;
40737;SDS011;54759;48.094;-1.628;2022-07-25T16:48:00;0.13;;;0.00;;
40737;SDS011;54759;48.094;-1.628;2022-07-25T16:51:02;0.10;;;0.10;;
40737;SDS011;54759;48.094;-1.628;2022-07-25T16:54:04;0.15;;;0.10;;
40737;SDS011;54759;48.094;-1.628;2022-07-25T16:57:06;0.05;;;0.00;;
40737;SDS011;54759;48.094;-1.628;2022-07-25T17:00:08;0.10;;;0.10;;
40737;SDS011;54759;48.094;-1.628;2022-07-25T17:03:11;0.10;;;0.10;;
40737;SDS011;54759;48.094;-1.628;2022-07-25T17:06:13;0.20;;;0.10;;
40737;SDS011;54759;48.094;-1.628;2022-07-25T17:09:15;0.10;;;0.10;;
40737;SDS011;54759;48.094;-1.628;2022-07-25T17:12:18;0.00;;;0.00;;
40737;SDS011;54759;48.094;-1.628;2022-07-25T17:15:19;0.10;;;0.10;;
40737;SDS011;54759;48.094;-1.628;2022-07-25T17:18:21;0.15;;;0.10;;
40737;SDS011;54759;48.094;-1.628;2022-07-25T17:21:23;0.20;;;0.20;;
40737;SDS011;54759;48.094;-1.628;2022-07-25T17:24:28;0.10;;;0.05;;
40737;SDS011;54759;48.094;-1.628;2022-07-25T17:27:30;0.10;;;0.10;;
40737;SDS011;54759;48.094;-1.628;2022-07-25T17:30:31;0.10;;;0.10;;
40737;SDS011;54759;48.094;-1.628;2022-07-25T17:33:33;0.10;;;0.10;;
40737;SDS011;54759;48.094;-1.628;2022-07-25T17:36:35;0.08;;;0.08;;
40737;SDS011;54759;48.094;-1.628;2022-07-25T17:39:37;0.25;;;0.10;;
40737;SDS011;54759;48.094;-1.628;2022-07-25T17:42:38;0.10;;;0.10;;
40737;SDS011;54759;48.094;-1.628;2022-07-25T17:45:45;0.30;;;0.15;;
40737;SDS011;54759;48.094;-1.628;2022-07-25T17:48:47;0.10;;;0.10;;
40737;SDS011;54759;48.094;-1.628;2022-07-25T17:51:49;0.00;;;0.00;;
40737;SDS011;54759;48.094;-1.628;2022-07-25T17:54:54;0.25;;;0.20;;
40737;SDS011;54759;48.094;-1.628;2022-07-25T17:57:56;0.20;;;0.10;;
40737;SDS011;54759;48.094;-1.628;2022-07-25T18:00:59;0.15;;;0.10;;
40737;SDS011;54759;48.094;-1.628;2022-07-25T18:04:02;0.10;;;0.10;;
40737;SDS011;54759;48.094;-1.628;2022-07-25T18:07:05;0.10;;;0.10;;